Detalii statie AGRALMIXT [00001CED]

Toti senzorii

Date Temperatura solului [C]Precipitatii [mm]Voltaj baterie [mV]Leaf Wetness [Min]HC Air temperature [C]HC Relative humidity [%]Punctul de roua [C]
medieminmaxsumaultimatimpmedieminmaxmediemediemin
2018-10-13 15:00:00 0 7138 20.82 20.34 21.78 24.61 -0.3 -0.8
2018-10-13 16:00:00 0 6962 19.87 18.64 20.45 25.17 -0.8 -1.8
2018-10-13 17:00:00 0 6894 17.09 15.43 18.59 30.91 -0.3 -1.2
2018-10-13 18:00:00 0 6786 14.42 13.18 15.61 36.98 -0.2 -0.7
2018-10-13 19:00:00 0 6748 12.13 10.89 13.14 42.86 -0.2 -0.8
2018-10-13 20:00:00 0 6756 8.95 8.19 10.23 51.86 -0.5 -1.1
2018-10-13 21:00:00 0 6748 7.5 5.7 8.96 58.48 -0.2 -0.4
2018-10-13 22:00:00 0 6738 5.63 4.5 8.99 69.09 0.3 -0.3
2018-10-13 23:00:00 0 6728 4.39 3.4 5.14 76.68 0.5 0
2018-10-14 00:00:00 0 6708 3.23 2.53 3.67 82.95 0.5 0
2018-10-14 01:00:00 0 6698 2 1.3 2.5 87.97 0.1 -0.2
2018-10-14 02:00:00 0 6698 1.69 1.34 2.1 92.71 0.5 0.2
2018-10-14 03:00:00 0 6688 1.36 0.85 1.68 94.57 0.4 0
2018-10-14 04:00:00 0 6678 0.42 -0.41 1.06 95.76 -0.2 -1
2018-10-14 05:00:00 0 6688 0.2 -0.43 0.79 97.75 -0.1 -0.7
2018-10-14 06:00:00 0 6678 -0.64 -1.65 0.48 98.09 -0.8 -1.9
2018-10-14 07:00:00 0 6688 -1.58 -2 -0.95 99.22 -1.5 -2.1
2018-10-14 08:00:00 0 6834 -0.73 -1.88 0.52 99.95 -0.6 -1.8
2018-10-14 09:00:00 0 7342 3.23 1.01 5.29 99.74 3.1 1
2018-10-14 10:00:00 0 7342 9.37 5.94 13.43 74.93 4.5 1.1
2018-10-14 11:00:00 0 7332 15.99 14.12 17.48 36.66 0.9 0.2
2018-10-14 12:00:00 0 7332 19.39 18.3 20.49 29.72 0.9 0
2018-10-14 13:00:00 0 7324 20.56 20.02 21.01 28.43 1.4 1
2018-10-14 14:00:00 0 7324 20.71 19.98 21.16 29.21 1.9 1
2018-10-14 15:00:00 0 7314 20.91 20.72 21.23 29.6 2.1 1.6
2018-10-14 16:00:00 0 6962 20.25 18.91 20.69 30.49 2.1 1.6
2018-10-14 17:00:00 0 6854 17.11 16.16 18.38 37.47 2.2 1.8
2018-10-14 18:00:00 0 6766 15.04 13.06 16.14 42.05 2 1.4
2018-10-14 19:00:00 0 6748 11.58 10.76 12.13 52.33 1.9 1.3
2018-10-14 20:00:00 0 6756 9.71 7.39 12.26 60.01 2.1 1.8
2018-10-14 21:00:00 0 6738 7.67 7.24 8.18 69.75 2.3 1.9
2018-10-14 22:00:00 0 6738 5.6 5.07 6.59 78.22 1.9 1.1
2018-10-14 23:00:00 0 6728 5.11 4.37 5.94 82.56 2.2 1.8
2018-10-15 00:00:00 0 6728 4.15 2.59 5.29 86.63 1.9 0.6
2018-10-15 01:00:00 0 6708 3.35 2.65 3.82 91.65 2 0.8
2018-10-15 02:00:00 0 6708 2.5 1.7 3.44 94.89 1.6 0.8
2018-10-15 03:00:00 0 6708 2.37 1.43 2.85 98.03 1.9 1
2018-10-15 04:00:00 0 6698 1.1 0.39 1.48 98.72 0.8 0.2
2018-10-15 05:00:00 0 6698 0.82 0.11 1.61 99.91 0.7 0
2018-10-15 06:00:00 0 6678 0.77 0.36 1.19 100 0.7 0.3
2018-10-15 07:00:00 0.2 6698 0.69 0.27 1.31 100 0.6 0.2
2018-10-15 08:00:00 0 6816 1.21 0.36 2.54 100 1.1 0.3
2018-10-15 09:00:00 0 7342 4.8 2.75 7.15 100 4.7 2.7
2018-10-15 10:00:00 0 7342 10.92 7.5 13.98 76.55 6.4 4.2
2018-10-15 11:00:00 0 7332 17.63 14.99 19.97 41.6 4.1 2.9
2018-10-15 12:00:00 0 7332 20.57 19.42 22.54 32.64 3.3 2.5
2018-10-15 13:00:00 0 7332 21.93 21.54 22.78 29.44 3 2.6
2018-10-15 14:00:00 0 7324 22.25 21.92 22.62 26.92 2 0.9